• Join FlightAware (Why Join?)
  • Login
  • US Flag 
03:18AM EDT


 

Airport Tracker/Info


-or-


 

Live Flight TrackerFlight Track Log ✈ PDT4157 ✈ 28-Jul-2013 ✈ KCLT - KHXD

Flight Track Log - Related Links

Times and Time Zones

All times are in EDT time to prevent confusion due to time zone crossing. See the PDT4157 flight status page for this flight to view local times or setup timezone preferences in your user account.

Time Position Orientation Groundspeed Altitude Reporting Facility
EDT Latitude Longitude Course Direction KTS MPH feet Rate Location/Type
11:29AM 35.2011 -80.9353 160° South 125 144 1,300  Level Atlanta Center
11:29AM 35.1800 -80.9208 151° Southeast 141 162 2,400 1,260 Climbing Atlanta Center
11:30AM 35.1747 -80.8778 99° East 171 197 3,300 780 Climbing Atlanta Center
11:31AM 34.9898 -80.8616 158° South  Level FlightAware Approximate
11:31AM 35.1747 -80.7992 90° East 196 226 4,100  Level Atlanta Center
11:32AM 34.9189 -80.8261 158° South  Level FlightAware Approximate
11:32AM 35.1344 -80.7778 157° South 205 236 4,800  Level Atlanta Center
11:33AM 34.8486 -80.7935 151° Southeast  Level FlightAware Approximate
11:33AM 35.0747 -80.7978 195° South 181 208 6,100  Level Atlanta Center
11:34AM 34.7777 -80.7586 160° South  Level FlightAware Approximate
11:34AM 35.0247 -80.8100 191° South 180 207 7,300  Level Atlanta Center
11:35AM 34.9747 -80.8144 184° South 182 209 8,300 900 Climbing Atlanta Center
11:36AM 34.9250 -80.8189 184° South 181 208 9,200 840 Climbing Atlanta Center
11:37AM 34.8767 -80.8106 172° South 189 217 10,000 840 Climbing Atlanta Center
11:38AM 34.8261 -80.7900 162° South 195 224 10,900 780 Climbing Atlanta Center
11:40AM 34.7447 -80.7578 162° South 199 229 12,100 720 Climbing Jacksonville Center
11:41AM 34.6942 -80.7336 159° South 199 229 12,800 600 Climbing Jacksonville Center
11:42AM 34.6417 -80.7122 161° South 204 235 13,400 600 Climbing Jacksonville Center
11:43AM 34.5911 -80.6858 157° South 204 235 14,000 300 Climbing Jacksonville Center
11:44AM 34.5347 -80.6772 173° South 204 235 14,000  Level Jacksonville Center
11:45AM 34.4700 -80.6814 183° South 211 243 14,000  Level Jacksonville Center
11:46AM 34.4053 -80.6806 179° South 228 262 14,000  Level Jacksonville Center
11:47AM 34.3408 -80.6819 181° South 234 269 14,000  Level Jacksonville Center
11:48AM 34.2739 -80.6814 180° South 234 269 14,100  Climbing Jacksonville Center
11:49AM 34.2094 -80.6853 183° South 234 269 14,000 -60 Descending Jacksonville Center
11:50AM 34.1447 -80.6844 179° South 234 269 14,000  Level Jacksonville Center
11:51AM 34.0758 -80.6839 180° South 234 269 14,000  Level Jacksonville Center
11:52AM 34.0111 -80.6806 178° South 234 269 14,100 -300 Climbing Jacksonville Center
11:53AM 33.9403 -80.6822 181° South 240 276 13,500 -780 Descending Jacksonville Center
11:54AM 33.8672 -80.6842 181° South 254 292 12,600 -780 Descending Jacksonville Center
11:55AM 33.7942 -80.6883 183° South 264 304 12,000 -300 Descending Jacksonville Center
11:56AM 33.7192 -80.6928 183° South 269 310 12,000  Level Jacksonville Center
11:57AM 33.6522 -80.6894 178° South 269 310 12,000  Level Jacksonville Center
11:58AM 33.5856 -80.6911 181° South 257 296 12,100  Climbing Jacksonville Center
11:59AM 33.5189 -80.6928 181° South 250 288 12,000 -60 Descending Jacksonville Center
12:00PM 33.4500 -80.6944 181° South 250 288 12,000  Level Jacksonville Center
12:01PM 33.3853 -80.6961 181° South 245 282 12,000  Level Jacksonville Center
12:02PM 33.3206 -80.6928 178° South 240 276 12,000  Level Jacksonville Center
12:03PM 33.2558 -80.6917 179° South 240 276 12,000  Level Jacksonville Center
12:04PM 33.1889 -80.6883 178° South 235 270 12,000  Level Jacksonville Center
12:05PM 33.1242 -80.6825 176° South 235 270 12,000  Level Jacksonville Center
12:06PM 33.0594 -80.6842 181° South 235 270 12,000  Level Jacksonville Center
12:07PM 32.9947 -80.6833 179° South 235 270 12,000 -180 Level Jacksonville Center
12:08PM 32.9303 -80.6900 185° South 235 270 11,700 -540 Descending Jacksonville Center
12:09PM 32.8614 -80.6942 183° South 235 270 11,000 -360 Descending Jacksonville Center
12:10PM 32.7947 -80.6956 181° South 241 277 11,000  Level Jacksonville Center
12:11PM 32.7300 -80.6972 181° South 236 272 11,000 -600 Level Jacksonville Center
12:12PM 32.6694 -80.6986 181° South 236 272 9,900 -1,440 Descending Jacksonville Center
12:13PM 32.5881 -80.6958 178° South 258 297 8,200 -1,800 Descending Jacksonville Center
12:14PM 32.5192 -80.7000 183° South 259 298 6,400 -1,860 Descending Jacksonville Center
12:15PM 32.4481 -80.6942 176° South 269 310 4,600 -1,980 Descending Jacksonville Center
12:16PM 32.3731 -80.6961 181° South 262 302 2,500 -1,500 Descending Jacksonville Center
12:17PM 32.3142 -80.6703 160° South 237 273 1,600 -780 Descending Jacksonville Center
12:18PM 32.2786 -80.6714 182° South 148 170 1,000 -600 Descending Jacksonville Center